sensor_id;sensor_type;location;lat;lon;timestamp;temperature;humidity
22562;DHT22;11447;50.562;8.504;2022-12-18T00:01:45;-4.90;99.90
22562;DHT22;11447;50.562;8.504;2022-12-18T00:04:16;-4.90;99.90
22562;DHT22;11447;50.562;8.504;2022-12-18T00:06:45;-5.00;99.90
22562;DHT22;11447;50.562;8.504;2022-12-18T00:09:16;-5.10;99.90
22562;DHT22;11447;50.562;8.504;2022-12-18T00:11:43;-5.00;99.90
22562;DHT22;11447;50.562;8.504;2022-12-18T00:14:12;-4.90;99.90
22562;DHT22;11447;50.562;8.504;2022-12-18T00:16:39;-4.80;99.90
22562;DHT22;11447;50.562;8.504;2022-12-18T00:19:08;-4.70;99.90
22562;DHT22;11447;50.562;8.504;2022-12-18T00:21:41;-4.70;99.90
22562;DHT22;11447;50.562;8.504;2022-12-18T00:24:08;-4.70;99.90
22562;DHT22;11447;50.562;8.504;2022-12-18T00:26:35;-4.80;99.90
22562;DHT22;11447;50.562;8.504;2022-12-18T00:29:06;-4.70;99.90
22562;DHT22;11447;50.562;8.504;2022-12-18T00:31:33;-4.70;99.90
22562;DHT22;11447;50.562;8.504;2022-12-18T00:34:00;-4.70;99.90
22562;DHT22;11447;50.562;8.504;2022-12-18T00:36:28;-4.70;99.90
22562;DHT22;11447;50.562;8.504;2022-12-18T00:38:55;-4.70;99.90
22562;DHT22;11447;50.562;8.504;2022-12-18T00:41:22;-4.70;99.90
22562;DHT22;11447;50.562;8.504;2022-12-18T00:44:09;-4.70;99.90
22562;DHT22;11447;50.562;8.504;2022-12-18T00:46:37;-4.70;99.90
22562;DHT22;11447;50.562;8.504;2022-12-18T00:49:03;-4.70;99.90
22562;DHT22;11447;50.562;8.504;2022-12-18T00:51:32;-4.70;99.90
22562;DHT22;11447;50.562;8.504;2022-12-18T00:53:59;-4.70;99.90
22562;DHT22;11447;50.562;8.504;2022-12-18T00:56:26;-4.80;99.90
22562;DHT22;11447;50.562;8.504;2022-12-18T00:58:53;-5.00;99.90
22562;DHT22;11447;50.562;8.504;2022-12-18T01:01:19;-5.20;99.90
22562;DHT22;11447;50.562;8.504;2022-12-18T01:03:48;-5.20;99.90
22562;DHT22;11447;50.562;8.504;2022-12-18T01:06:15;-5.30;99.90
22562;DHT22;11447;50.562;8.504;2022-12-18T01:08:42;-5.20;99.90
22562;DHT22;11447;50.562;8.504;2022-12-18T01:11:09;-5.30;99.90
22562;DHT22;11447;50.562;8.504;2022-12-18T01:13:36;-5.50;99.90
22562;DHT22;11447;50.562;8.504;2022-12-18T01:16:03;-5.80;99.90
22562;DHT22;11447;50.562;8.504;2022-12-18T01:18:30;-5.90;99.90
22562;DHT22;11447;50.562;8.504;2022-12-18T01:20:57;-5.90;99.90
22562;DHT22;11447;50.562;8.504;2022-12-18T01:23:25;-5.90;99.90
22562;DHT22;11447;50.562;8.504;2022-12-18T01:25:54;-5.80;99.90
22562;DHT22;11447;50.562;8.504;2022-12-18T01:28:21;-5.90;99.90
22562;DHT22;11447;50.562;8.504;2022-12-18T01:30:47;-6.00;99.90
22562;DHT22;11447;50.562;8.504;2022-12-18T01:33:14;-6.00;99.90
22562;DHT22;11447;50.562;8.504;2022-12-18T01:35:41;-5.90;99.90
22562;DHT22;11447;50.562;8.504;2022-12-18T01:38:08;-5.90;99.90
22562;DHT22;11447;50.562;8.504;2022-12-18T01:40:35;-5.80;99.90
22562;DHT22;11447;50.562;8.504;2022-12-18T01:43:01;-5.80;99.90
22562;DHT22;11447;50.562;8.504;2022-12-18T01:45:32;-5.80;99.90
22562;DHT22;11447;50.562;8.504;2022-12-18T01:48:00;-5.90;99.90
22562;DHT22;11447;50.562;8.504;2022-12-18T01:50:36;-5.90;99.90
22562;DHT22;11447;50.562;8.504;2022-12-18T01:53:06;-6.10;99.90
22562;DHT22;11447;50.562;8.504;2022-12-18T01:55:42;-6.10;99.90
22562;DHT22;11447;50.562;8.504;2022-12-18T01:58:09;-6.20;99.90
22562;DHT22;11447;50.562;8.504;2022-12-18T02:00:37;-6.30;99.90
22562;DHT22;11447;50.562;8.504;2022-12-18T02:03:04;-6.20;99.90
22562;DHT22;11447;50.562;8.504;2022-12-18T02:08:16;-6.40;99.90
22562;DHT22;11447;50.562;8.504;2022-12-18T02:13:30;-6.40;99.90
22562;DHT22;11447;50.562;8.504;2022-12-18T02:18:35;-6.30;99.90
22562;DHT22;11447;50.562;8.504;2022-12-18T02:26:20;-6.20;99.90
22562;DHT22;11447;50.562;8.504;2022-12-18T02:31:24;-6.30;99.90
22562;DHT22;11447;50.562;8.504;2022-12-18T02:33:52;-6.40;99.90
22562;DHT22;11447;50.562;8.504;2022-12-18T02:36:22;-6.40;99.90
22562;DHT22;11447;50.562;8.504;2022-12-18T02:38:52;-6.50;99.90
22562;DHT22;11447;50.562;8.504;2022-12-18T02:41:19;-6.30;99.90
22562;DHT22;11447;50.562;8.504;2022-12-18T02:43:53;-6.30;99.90
22562;DHT22;11447;50.562;8.504;2022-12-18T02:46:25;-6.30;99.90
22562;DHT22;11447;50.562;8.504;2022-12-18T02:48:54;-6.40;99.90
22562;DHT22;11447;50.562;8.504;2022-12-18T02:51:27;-6.50;99.90
22562;DHT22;11447;50.562;8.504;2022-12-18T02:53:59;-6.70;99.90
22562;DHT22;11447;50.562;8.504;2022-12-18T02:56:34;-6.80;99.90
22562;DHT22;11447;50.562;8.504;2022-12-18T02:59:04;-6.80;99.90
22562;DHT22;11447;50.562;8.504;2022-12-18T03:04:04;-6.70;99.90
22562;DHT22;11447;50.562;8.504;2022-12-18T03:06:37;-6.70;99.90
22562;DHT22;11447;50.562;8.504;2022-12-18T03:09:07;-6.60;99.90
22562;DHT22;11447;50.562;8.504;2022-12-18T03:11:36;-6.60;99.90
22562;DHT22;11447;50.562;8.504;2022-12-18T03:14:22;-6.60;99.90
22562;DHT22;11447;50.562;8.504;2022-12-18T03:16:50;-6.60;99.90
22562;DHT22;11447;50.562;8.504;2022-12-18T03:19:20;-6.60;99.90
22562;DHT22;11447;50.562;8.504;2022-12-18T03:21:49;-6.50;99.90
22562;DHT22;11447;50.562;8.504;2022-12-18T03:24:17;-6.60;99.90
22562;DHT22;11447;50.562;8.504;2022-12-18T03:26:47;-6.70;99.90
22562;DHT22;11447;50.562;8.504;2022-12-18T03:29:19;-6.80;99.90
22562;DHT22;11447;50.562;8.504;2022-12-18T03:31:49;-6.90;99.90
22562;DHT22;11447;50.562;8.504;2022-12-18T03:34:21;-6.90;99.90
22562;DHT22;11447;50.562;8.504;2022-12-18T03:36:48;-6.80;99.90
22562;DHT22;11447;50.562;8.504;2022-12-18T03:39:18;-6.70;99.90
22562;DHT22;11447;50.562;8.504;2022-12-18T03:41:46;-6.60;99.90
22562;DHT22;11447;50.562;8.504;2022-12-18T03:46:51;-6.60;99.90
22562;DHT22;11447;50.562;8.504;2022-12-18T03:54:16;-6.70;99.90
22562;DHT22;11447;50.562;8.504;2022-12-18T03:56:44;-6.70;99.90
22562;DHT22;11447;50.562;8.504;2022-12-18T03:59:12;-6.70;99.90
22562;DHT22;11447;50.562;8.504;2022-12-18T04:01:45;-6.70;99.90
22562;DHT22;11447;50.562;8.504;2022-12-18T04:04:12;-6.70;99.90
22562;DHT22;11447;50.562;8.504;2022-12-18T04:06:43;-6.80;99.90
22562;DHT22;11447;50.562;8.504;2022-12-18T04:09:11;-6.90;99.90
22562;DHT22;11447;50.562;8.504;2022-12-18T04:11:39;-6.90;99.90
22562;DHT22;11447;50.562;8.504;2022-12-18T04:14:06;-6.90;99.90
22562;DHT22;11447;50.562;8.504;2022-12-18T04:16:33;-6.90;99.90
22562;DHT22;11447;50.562;8.504;2022-12-18T04:19:02;-6.90;99.90
22562;DHT22;11447;50.562;8.504;2022-12-18T04:21:29;-6.90;99.90
22562;DHT22;11447;50.562;8.504;2022-12-18T04:23:55;-6.90;99.90
22562;DHT22;11447;50.562;8.504;2022-12-18T04:26:22;-6.90;99.90
22562;DHT22;11447;50.562;8.504;2022-12-18T04:28:48;-6.90;99.90
22562;DHT22;11447;50.562;8.504;2022-12-18T04:31:17;-6.90;99.90
22562;DHT22;11447;50.562;8.504;2022-12-18T04:33:46;-7.00;99.90
22562;DHT22;11447;50.562;8.504;2022-12-18T04:36:15;-7.10;99.90
22562;DHT22;11447;50.562;8.504;2022-12-18T04:38:44;-7.10;99.90
22562;DHT22;11447;50.562;8.504;2022-12-18T04:41:10;-7.10;99.90
22562;DHT22;11447;50.562;8.504;2022-12-18T04:43:40;-7.10;99.90
22562;DHT22;11447;50.562;8.504;2022-12-18T04:46:07;-7.00;99.90
22562;DHT22;11447;50.562;8.504;2022-12-18T04:48:35;-7.00;99.90
22562;DHT22;11447;50.562;8.504;2022-12-18T04:51:01;-7.00;99.90
22562;DHT22;11447;50.562;8.504;2022-12-18T04:53:28;-6.90;99.90
22562;DHT22;11447;50.562;8.504;2022-12-18T04:56:02;-7.00;99.90
22562;DHT22;11447;50.562;8.504;2022-12-18T04:58:31;-7.00;99.90
22562;DHT22;11447;50.562;8.504;2022-12-18T05:00:57;-7.00;99.90
22562;DHT22;11447;50.562;8.504;2022-12-18T05:03:24;-6.90;99.90
22562;DHT22;11447;50.562;8.504;2022-12-18T05:05:51;-6.90;99.90
22562;DHT22;11447;50.562;8.504;2022-12-18T05:08:17;-7.00;99.90
22562;DHT22;11447;50.562;8.504;2022-12-18T05:10:45;-7.00;99.90
22562;DHT22;11447;50.562;8.504;2022-12-18T05:13:12;-7.00;99.90
22562;DHT22;11447;50.562;8.504;2022-12-18T05:15:38;-7.10;99.90
22562;DHT22;11447;50.562;8.504;2022-12-18T05:18:05;-7.10;99.90
22562;DHT22;11447;50.562;8.504;2022-12-18T05:20:31;-7.20;99.90
22562;DHT22;11447;50.562;8.504;2022-12-18T05:23:00;-7.10;99.90
22562;DHT22;11447;50.562;8.504;2022-12-18T05:25:27;-7.10;99.90
22562;DHT22;11447;50.562;8.504;2022-12-18T05:27:53;-7.00;99.90
22562;DHT22;11447;50.562;8.504;2022-12-18T05:30:23;-7.00;99.90
22562;DHT22;11447;50.562;8.504;2022-12-18T05:32:52;-7.10;99.90
22562;DHT22;11447;50.562;8.504;2022-12-18T05:35:20;-7.10;99.90
22562;DHT22;11447;50.562;8.504;2022-12-18T05:37:47;-7.10;99.90
22562;DHT22;11447;50.562;8.504;2022-12-18T05:40:14;-7.10;99.90
22562;DHT22;11447;50.562;8.504;2022-12-18T05:42:43;-7.10;99.90
22562;DHT22;11447;50.562;8.504;2022-12-18T05:45:09;-7.20;99.90
22562;DHT22;11447;50.562;8.504;2022-12-18T05:47:36;-7.20;99.90
22562;DHT22;11447;50.562;8.504;2022-12-18T05:50:03;-7.20;99.90
22562;DHT22;11447;50.562;8.504;2022-12-18T05:52:30;-7.20;99.90
22562;DHT22;11447;50.562;8.504;2022-12-18T05:54:56;-7.20;99.90
22562;DHT22;11447;50.562;8.504;2022-12-18T05:57:25;-7.20;99.90
22562;DHT22;11447;50.562;8.504;2022-12-18T05:59:54;-7.20;99.90
22562;DHT22;11447;50.562;8.504;2022-12-18T06:02:23;-7.20;99.90
22562;DHT22;11447;50.562;8.504;2022-12-18T06:04:50;-7.20;99.90
22562;DHT22;11447;50.562;8.504;2022-12-18T06:07:17;-7.20;99.90
22562;DHT22;11447;50.562;8.504;2022-12-18T06:09:43;-7.20;99.90
22562;DHT22;11447;50.562;8.504;2022-12-18T06:12:12;-7.20;99.90
22562;DHT22;11447;50.562;8.504;2022-12-18T06:14:39;-7.20;99.90
22562;DHT22;11447;50.562;8.504;2022-12-18T06:17:05;-7.20;99.90
22562;DHT22;11447;50.562;8.504;2022-12-18T06:19:32;-7.30;99.90
22562;DHT22;11447;50.562;8.504;2022-12-18T06:21:58;-7.40;99.90
22562;DHT22;11447;50.562;8.504;2022-12-18T06:24:25;-7.40;99.90
22562;DHT22;11447;50.562;8.504;2022-12-18T06:26:52;-7.40;99.90
22562;DHT22;11447;50.562;8.504;2022-12-18T06:29:18;-7.40;99.90
22562;DHT22;11447;50.562;8.504;2022-12-18T06:31:47;-7.40;99.90
22562;DHT22;11447;50.562;8.504;2022-12-18T06:34:14;-7.40;99.90
22562;DHT22;11447;50.562;8.504;2022-12-18T06:36:43;-7.30;99.90
22562;DHT22;11447;50.562;8.504;2022-12-18T06:39:10;-7.40;99.90
22562;DHT22;11447;50.562;8.504;2022-12-18T06:41:36;-7.50;99.90
22562;DHT22;11447;50.562;8.504;2022-12-18T06:44:04;-7.60;99.90
22562;DHT22;11447;50.562;8.504;2022-12-18T06:46:32;-7.60;99.90
22562;DHT22;11447;50.562;8.504;2022-12-18T06:49:01;-7.60;99.90
22562;DHT22;11447;50.562;8.504;2022-12-18T06:51:27;-7.60;99.90
22562;DHT22;11447;50.562;8.504;2022-12-18T06:53:54;-7.60;99.90
22562;DHT22;11447;50.562;8.504;2022-12-18T06:56:21;-7.70;99.90
22562;DHT22;11447;50.562;8.504;2022-12-18T06:58:47;-7.70;99.90
22562;DHT22;11447;50.562;8.504;2022-12-18T07:01:17;-7.60;99.90
22562;DHT22;11447;50.562;8.504;2022-12-18T07:03:43;-7.60;99.90
22562;DHT22;11447;50.562;8.504;2022-12-18T07:06:13;-7.60;99.90
22562;DHT22;11447;50.562;8.504;2022-12-18T07:08:42;-7.50;99.90
22562;DHT22;11447;50.562;8.504;2022-12-18T07:11:08;-7.50;99.90
22562;DHT22;11447;50.562;8.504;2022-12-18T07:13:35;-7.50;99.90
22562;DHT22;11447;50.562;8.504;2022-12-18T07:16:08;-7.50;99.90
22562;DHT22;11447;50.562;8.504;2022-12-18T07:18:46;-7.50;99.90
22562;DHT22;11447;50.562;8.504;2022-12-18T07:21:14;-7.50;99.90
22562;DHT22;11447;50.562;8.504;2022-12-18T07:23:41;-7.50;99.90
22562;DHT22;11447;50.562;8.504;2022-12-18T07:26:09;-7.50;99.90
22562;DHT22;11447;50.562;8.504;2022-12-18T07:28:36;-7.50;99.90
22562;DHT22;11447;50.562;8.504;2022-12-18T07:31:06;-7.50;99.90
22562;DHT22;11447;50.562;8.504;2022-12-18T07:33:33;-7.50;99.90
22562;DHT22;11447;50.562;8.504;2022-12-18T07:36:00;-7.50;99.90
22562;DHT22;11447;50.562;8.504;2022-12-18T07:38:27;-7.50;99.90
22562;DHT22;11447;50.562;8.504;2022-12-18T07:41:00;-7.50;99.90
22562;DHT22;11447;50.562;8.504;2022-12-18T07:43:27;-7.50;99.90
22562;DHT22;11447;50.562;8.504;2022-12-18T07:45:53;-7.50;99.90
22562;DHT22;11447;50.562;8.504;2022-12-18T07:48:20;-7.50;99.90
22562;DHT22;11447;50.562;8.504;2022-12-18T07:50:47;-7.70;99.90
22562;DHT22;11447;50.562;8.504;2022-12-18T07:53:13;-7.80;99.90
22562;DHT22;11447;50.562;8.504;2022-12-18T07:55:41;-7.80;99.90
22562;DHT22;11447;50.562;8.504;2022-12-18T07:58:30;-7.80;99.90
22562;DHT22;11447;50.562;8.504;2022-12-18T08:03:29;-7.80;99.90
22562;DHT22;11447;50.562;8.504;2022-12-18T08:06:02;-7.80;99.90
22562;DHT22;11447;50.562;8.504;2022-12-18T08:08:29;-7.80;99.90
22562;DHT22;11447;50.562;8.504;2022-12-18T08:10:56;-7.80;99.90
22562;DHT22;11447;50.562;8.504;2022-12-18T08:13:23;-7.70;99.90
22562;DHT22;11447;50.562;8.504;2022-12-18T08:15:59;-7.60;99.90
22562;DHT22;11447;50.562;8.504;2022-12-18T08:18:26;-7.60;99.90
22562;DHT22;11447;50.562;8.504;2022-12-18T08:20:54;-7.50;99.90
22562;DHT22;11447;50.562;8.504;2022-12-18T08:23:20;-7.50;99.90
22562;DHT22;11447;50.562;8.504;2022-12-18T08:26:07;-7.50;99.90
22562;DHT22;11447;50.562;8.504;2022-12-18T08:28:34;-7.50;99.90
22562;DHT22;11447;50.562;8.504;2022-12-18T08:31:03;-7.50;99.90
22562;DHT22;11447;50.562;8.504;2022-12-18T08:33:30;-7.60;99.90
22562;DHT22;11447;50.562;8.504;2022-12-18T08:35:58;-7.60;99.90
22562;DHT22;11447;50.562;8.504;2022-12-18T08:38:24;-7.60;99.90
22562;DHT22;11447;50.562;8.504;2022-12-18T08:41:10;-7.60;99.90
22562;DHT22;11447;50.562;8.504;2022-12-18T08:43:36;-7.60;99.90
22562;DHT22;11447;50.562;8.504;2022-12-18T08:46:22;-7.60;99.90
22562;DHT22;11447;50.562;8.504;2022-12-18T08:48:50;-7.60;99.90
22562;DHT22;11447;50.562;8.504;2022-12-18T08:51:17;-7.60;99.90
22562;DHT22;11447;50.562;8.504;2022-12-18T08:53:43;-7.60;99.90
22562;DHT22;11447;50.562;8.504;2022-12-18T08:56:11;-7.50;99.90
22562;DHT22;11447;50.562;8.504;2022-12-18T08:58:37;-7.50;99.90
22562;DHT22;11447;50.562;8.504;2022-12-18T09:01:07;-7.40;99.90
22562;DHT22;11447;50.562;8.504;2022-12-18T09:03:38;-7.20;99.90
22562;DHT22;11447;50.562;8.504;2022-12-18T09:06:05;-7.20;99.90
22562;DHT22;11447;50.562;8.504;2022-12-18T09:08:32;-7.10;99.90
22562;DHT22;11447;50.562;8.504;2022-12-18T09:11:09;-7.10;99.90
22562;DHT22;11447;50.562;8.504;2022-12-18T09:13:36;-7.00;99.90
22562;DHT22;11447;50.562;8.504;2022-12-18T09:16:03;-7.00;99.90
22562;DHT22;11447;50.562;8.504;2022-12-18T09:18:33;-7.00;99.90
22562;DHT22;11447;50.562;8.504;2022-12-18T09:21:09;-7.10;99.90
22562;DHT22;11447;50.562;8.504;2022-12-18T09:23:38;-7.00;99.90
22562;DHT22;11447;50.562;8.504;2022-12-18T09:26:05;-7.00;99.90
22562;DHT22;11447;50.562;8.504;2022-12-18T09:28:32;-6.90;99.90
22562;DHT22;11447;50.562;8.504;2022-12-18T09:30:58;-6.80;99.90
22562;DHT22;11447;50.562;8.504;2022-12-18T09:33:31;-6.90;99.90
22562;DHT22;11447;50.562;8.504;2022-12-18T09:36:01;-6.80;99.90
22562;DHT22;11447;50.562;8.504;2022-12-18T09:38:27;-6.80;99.90
22562;DHT22;11447;50.562;8.504;2022-12-18T09:40:56;-6.60;99.90
22562;DHT22;11447;50.562;8.504;2022-12-18T09:43:26;-6.40;99.90
22562;DHT22;11447;50.562;8.504;2022-12-18T09:45:59;-6.30;99.90
22562;DHT22;11447;50.562;8.504;2022-12-18T09:48:32;-6.40;99.90
22562;DHT22;11447;50.562;8.504;2022-12-18T09:51:00;-6.40;99.90
22562;DHT22;11447;50.562;8.504;2022-12-18T09:53:30;-6.30;99.90
22562;DHT22;11447;50.562;8.504;2022-12-18T09:55:58;-6.20;99.90
22562;DHT22;11447;50.562;8.504;2022-12-18T09:58:28;-6.10;99.90
22562;DHT22;11447;50.562;8.504;2022-12-18T10:00:57;-5.90;99.90
22562;DHT22;11447;50.562;8.504;2022-12-18T10:03:23;-5.80;99.90
22562;DHT22;11447;50.562;8.504;2022-12-18T10:05:57;-5.70;99.90
22562;DHT22;11447;50.562;8.504;2022-12-18T10:08:30;-5.70;99.90
22562;DHT22;11447;50.562;8.504;2022-12-18T10:13:49;-5.70;99.90
22562;DHT22;11447;50.562;8.504;2022-12-18T10:24:08;-5.70;99.90
22562;DHT22;11447;50.562;8.504;2022-12-18T10:26:38;-5.70;99.90
22562;DHT22;11447;50.562;8.504;2022-12-18T10:29:12;-5.60;99.90
22562;DHT22;11447;50.562;8.504;2022-12-18T10:31:39;-5.40;99.90
22562;DHT22;11447;50.562;8.504;2022-12-18T10:34:11;-5.30;99.90
22562;DHT22;11447;50.562;8.504;2022-12-18T10:36:41;-5.20;99.90
22562;DHT22;11447;50.562;8.504;2022-12-18T10:39:15;-5.10;99.90
22562;DHT22;11447;50.562;8.504;2022-12-18T10:41:44;-5.00;99.90
22562;DHT22;11447;50.562;8.504;2022-12-18T10:44:16;-5.00;99.90
22562;DHT22;11447;50.562;8.504;2022-12-18T10:46:44;-5.00;99.90
22562;DHT22;11447;50.562;8.504;2022-12-18T10:51:50;-5.00;99.90
22562;DHT22;11447;50.562;8.504;2022-12-18T10:54:19;-5.00;99.90
22562;DHT22;11447;50.562;8.504;2022-12-18T10:56:47;-4.90;99.90
22562;DHT22;11447;50.562;8.504;2022-12-18T10:59:15;-4.90;99.90
22562;DHT22;11447;50.562;8.504;2022-12-18T11:04:17;-4.80;99.90
22562;DHT22;11447;50.562;8.504;2022-12-18T11:09:34;-4.80;99.90
22562;DHT22;11447;50.562;8.504;2022-12-18T11:12:02;-4.80;99.90
22562;DHT22;11447;50.562;8.504;2022-12-18T11:14:30;-4.70;99.90
22562;DHT22;11447;50.562;8.504;2022-12-18T11:16:59;-4.60;99.90
22562;DHT22;11447;50.562;8.504;2022-12-18T11:19:51;-4.60;99.90
22562;DHT22;11447;50.562;8.504;2022-12-18T11:22:19;-4.50;99.90
22562;DHT22;11447;50.562;8.504;2022-12-18T11:24:52;-4.40;99.90
22562;DHT22;11447;50.562;8.504;2022-12-18T11:27:39;-4.40;99.90
22562;DHT22;11447;50.562;8.504;2022-12-18T11:32:37;-4.20;99.90
22562;DHT22;11447;50.562;8.504;2022-12-18T11:37:40;-4.10;99.90
22562;DHT22;11447;50.562;8.504;2022-12-18T11:40:11;-4.00;99.90
22562;DHT22;11447;50.562;8.504;2022-12-18T11:53:04;-3.70;99.90
22562;DHT22;11447;50.562;8.504;2022-12-18T11:55:43;-3.60;99.90
22562;DHT22;11447;50.562;8.504;2022-12-18T12:16:25;-3.50;99.90
22562;DHT22;11447;50.562;8.504;2022-12-18T12:18:56;-3.40;99.90
22562;DHT22;11447;50.562;8.504;2022-12-18T12:31:29;-3.30;99.90
22562;DHT22;11447;50.562;8.504;2022-12-18T12:37:09;-3.30;99.90
22562;DHT22;11447;50.562;8.504;2022-12-18T12:39:37;-3.30;99.90
22562;DHT22;11447;50.562;8.504;2022-12-18T12:42:05;-3.30;99.90
22562;DHT22;11447;50.562;8.504;2022-12-18T12:44:56;-3.30;99.90
22562;DHT22;11447;50.562;8.504;2022-12-18T12:47:30;-3.30;99.90
22562;DHT22;11447;50.562;8.504;2022-12-18T12:49:59;-3.40;99.90
22562;DHT22;11447;50.562;8.504;2022-12-18T12:54:56;-3.30;99.90
22562;DHT22;11447;50.562;8.504;2022-12-18T12:57:29;-3.20;99.90
22562;DHT22;11447;50.562;8.504;2022-12-18T13:00:00;-3.20;99.90
22562;DHT22;11447;50.562;8.504;2022-12-18T13:12:54;-3.10;99.90
22562;DHT22;11447;50.562;8.504;2022-12-18T13:18:04;-3.20;99.90
22562;DHT22;11447;50.562;8.504;2022-12-18T13:20:32;-3.20;99.90
22562;DHT22;11447;50.562;8.504;2022-12-18T13:23:00;-3.20;99.90
22562;DHT22;11447;50.562;8.504;2022-12-18T13:35:42;-3.40;99.90
22562;DHT22;11447;50.562;8.504;2022-12-18T13:48:28;-3.40;99.90
22562;DHT22;11447;50.562;8.504;2022-12-18T13:53:30;-3.30;99.90
22562;DHT22;11447;50.562;8.504;2022-12-18T13:55:57;-3.30;99.90
22562;DHT22;11447;50.562;8.504;2022-12-18T13:58:26;-3.20;99.90
22562;DHT22;11447;50.562;8.504;2022-12-18T14:00:53;-3.20;99.90
22562;DHT22;11447;50.562;8.504;2022-12-18T14:03:24;-3.20;99.90
22562;DHT22;11447;50.562;8.504;2022-12-18T14:05:59;-3.20;99.90
22562;DHT22;11447;50.562;8.504;2022-12-18T14:08:27;-3.20;99.90
22562;DHT22;11447;50.562;8.504;2022-12-18T14:10:57;-3.30;99.90
22562;DHT22;11447;50.562;8.504;2022-12-18T14:13:27;-3.40;99.90
22562;DHT22;11447;50.562;8.504;2022-12-18T14:15:54;-3.40;99.90
22562;DHT22;11447;50.562;8.504;2022-12-18T14:20:54;-3.50;99.90
22562;DHT22;11447;50.562;8.504;2022-12-18T14:23:36;-3.50;99.90
22562;DHT22;11447;50.562;8.504;2022-12-18T14:28:46;-3.60;99.90
22562;DHT22;11447;50.562;8.504;2022-12-18T14:31:20;-3.60;99.90
22562;DHT22;11447;50.562;8.504;2022-12-18T14:33:47;-3.50;99.90
22562;DHT22;11447;50.562;8.504;2022-12-18T14:36:16;-3.50;99.90
22562;DHT22;11447;50.562;8.504;2022-12-18T14:38:43;-3.40;99.90
22562;DHT22;11447;50.562;8.504;2022-12-18T14:41:19;-3.40;99.90
22562;DHT22;11447;50.562;8.504;2022-12-18T14:43:47;-3.40;99.90
22562;DHT22;11447;50.562;8.504;2022-12-18T14:48:51;-3.30;99.90
22562;DHT22;11447;50.562;8.504;2022-12-18T14:51:19;-3.30;99.90
22562;DHT22;11447;50.562;8.504;2022-12-18T14:53:47;-3.30;99.90
22562;DHT22;11447;50.562;8.504;2022-12-18T15:01:26;-3.30;99.90
22562;DHT22;11447;50.562;8.504;2022-12-18T15:03:54;-3.30;99.90
22562;DHT22;11447;50.562;8.504;2022-12-18T15:06:25;-3.20;99.90
22562;DHT22;11447;50.562;8.504;2022-12-18T15:08:52;-3.30;99.90
22562;DHT22;11447;50.562;8.504;2022-12-18T15:14:22;-3.30;99.90
22562;DHT22;11447;50.562;8.504;2022-12-18T15:16:50;-3.30;99.90
22562;DHT22;11447;50.562;8.504;2022-12-18T15:19:17;-3.30;99.90
22562;DHT22;11447;50.562;8.504;2022-12-18T15:21:43;-3.30;99.90
22562;DHT22;11447;50.562;8.504;2022-12-18T15:24:17;-3.20;99.90
22562;DHT22;11447;50.562;8.504;2022-12-18T15:26:44;-3.20;99.90
22562;DHT22;11447;50.562;8.504;2022-12-18T15:29:19;-3.20;99.90
22562;DHT22;11447;50.562;8.504;2022-12-18T15:31:59;-3.10;99.90
22562;DHT22;11447;50.562;8.504;2022-12-18T15:34:25;-3.20;99.90
22562;DHT22;11447;50.562;8.504;2022-12-18T15:36:53;-3.20;99.90
22562;DHT22;11447;50.562;8.504;2022-12-18T15:39:19;-3.20;99.90
22562;DHT22;11447;50.562;8.504;2022-12-18T15:41:46;-3.20;99.90
22562;DHT22;11447;50.562;8.504;2022-12-18T15:44:32;-3.20;99.90
22562;DHT22;11447;50.562;8.504;2022-12-18T15:46:58;-3.10;99.90
22562;DHT22;11447;50.562;8.504;2022-12-18T15:49:25;-3.10;99.90
22562;DHT22;11447;50.562;8.504;2022-12-18T15:51:52;-3.10;99.90
22562;DHT22;11447;50.562;8.504;2022-12-18T15:54:20;-3.20;99.90
22562;DHT22;11447;50.562;8.504;2022-12-18T15:57:10;-3.20;99.90
22562;DHT22;11447;50.562;8.504;2022-12-18T15:59:53;-3.30;99.90
22562;DHT22;11447;50.562;8.504;2022-12-18T16:02:20;-3.30;99.90
22562;DHT22;11447;50.562;8.504;2022-12-18T16:04:52;-3.20;99.90
22562;DHT22;11447;50.562;8.504;2022-12-18T16:07:22;-3.20;99.90
22562;DHT22;11447;50.562;8.504;2022-12-18T16:09:54;-3.10;99.90
22562;DHT22;11447;50.562;8.504;2022-12-18T16:12:25;-3.10;99.90
22562;DHT22;11447;50.562;8.504;2022-12-18T16:14:54;-3.00;99.90
22562;DHT22;11447;50.562;8.504;2022-12-18T16:17:23;-3.00;99.90
22562;DHT22;11447;50.562;8.504;2022-12-18T16:19:49;-3.10;99.90
22562;DHT22;11447;50.562;8.504;2022-12-18T16:22:20;-3.20;99.90
22562;DHT22;11447;50.562;8.504;2022-12-18T16:24:47;-3.10;99.90
22562;DHT22;11447;50.562;8.504;2022-12-18T16:27:16;-3.10;99.90
22562;DHT22;11447;50.562;8.504;2022-12-18T16:29:45;-3.20;99.90
22562;DHT22;11447;50.562;8.504;2022-12-18T16:32:15;-3.10;99.90
22562;DHT22;11447;50.562;8.504;2022-12-18T16:34:43;-3.10;99.90
22562;DHT22;11447;50.562;8.504;2022-12-18T16:37:10;-3.10;99.90
22562;DHT22;11447;50.562;8.504;2022-12-18T16:39:40;-3.10;99.90
22562;DHT22;11447;50.562;8.504;2022-12-18T16:44:38;-3.10;99.90
22562;DHT22;11447;50.562;8.504;2022-12-18T16:47:04;-3.00;99.90
22562;DHT22;11447;50.562;8.504;2022-12-18T16:49:36;-2.90;99.90
22562;DHT22;11447;50.562;8.504;2022-12-18T16:52:06;-3.00;99.90
22562;DHT22;11447;50.562;8.504;2022-12-18T16:54:35;-3.00;99.90
22562;DHT22;11447;50.562;8.504;2022-12-18T16:57:02;-3.00;99.90
22562;DHT22;11447;50.562;8.504;2022-12-18T16:59:34;-2.90;99.90
22562;DHT22;11447;50.562;8.504;2022-12-18T17:02:05;-3.00;99.90
22562;DHT22;11447;50.562;8.504;2022-12-18T17:04:32;-2.90;99.90
22562;DHT22;11447;50.562;8.504;2022-12-18T17:06:59;-2.90;99.90
22562;DHT22;11447;50.562;8.504;2022-12-18T17:09:28;-2.90;99.90
22562;DHT22;11447;50.562;8.504;2022-12-18T17:11:57;-2.90;99.90
22562;DHT22;11447;50.562;8.504;2022-12-18T17:14:30;-2.90;99.90
22562;DHT22;11447;50.562;8.504;2022-12-18T17:16:57;-2.90;99.90
22562;DHT22;11447;50.562;8.504;2022-12-18T17:19:45;-2.90;99.90
22562;DHT22;11447;50.562;8.504;2022-12-18T17:22:11;-2.90;99.90
22562;DHT22;11447;50.562;8.504;2022-12-18T17:24:38;-2.90;99.90
22562;DHT22;11447;50.562;8.504;2022-12-18T17:27:07;-2.90;99.90
22562;DHT22;11447;50.562;8.504;2022-12-18T17:29:34;-3.00;99.90
22562;DHT22;11447;50.562;8.504;2022-12-18T17:32:00;-3.00;99.90
22562;DHT22;11447;50.562;8.504;2022-12-18T17:34:27;-3.10;99.90
22562;DHT22;11447;50.562;8.504;2022-12-18T17:36:55;-3.10;99.90
22562;DHT22;11447;50.562;8.504;2022-12-18T17:39:22;-3.20;99.90
22562;DHT22;11447;50.562;8.504;2022-12-18T17:41:51;-3.30;99.90
22562;DHT22;11447;50.562;8.504;2022-12-18T17:44:17;-3.40;99.90
22562;DHT22;11447;50.562;8.504;2022-12-18T17:46:44;-3.40;99.90
22562;DHT22;11447;50.562;8.504;2022-12-18T17:49:11;-3.40;99.90
22562;DHT22;11447;50.562;8.504;2022-12-18T17:51:39;-3.40;99.90
22562;DHT22;11447;50.562;8.504;2022-12-18T17:54:07;-3.40;99.90
22562;DHT22;11447;50.562;8.504;2022-12-18T17:56:34;-3.40;99.90
22562;DHT22;11447;50.562;8.504;2022-12-18T17:59:01;-3.40;99.90
22562;DHT22;11447;50.562;8.504;2022-12-18T18:01:28;-3.40;99.90
22562;DHT22;11447;50.562;8.504;2022-12-18T18:03:54;-3.40;99.90
22562;DHT22;11447;50.562;8.504;2022-12-18T18:06:25;-3.30;99.90
22562;DHT22;11447;50.562;8.504;2022-12-18T18:08:52;-3.40;99.90
22562;DHT22;11447;50.562;8.504;2022-12-18T18:11:19;-3.40;99.90
22562;DHT22;11447;50.562;8.504;2022-12-18T18:14:06;-3.40;99.90